Login
Access
Login with your mtb-forum.it nickname and password.


You do not have an account? Sign up here for free

hors categorie

Last training unit 13/06/2019
5
Followers
137 313 Km
itineraries
1 870 945 m
of total vertical gain
5314
hours of riding
25.88 Km/h
average speed
117
average HR


13/06/2019 Show to everybody Giro pomeridiano 99.51 Km 1445 m 03:39:07 27.25 Km\h focus izalco max lw
12/06/2019 Show to everybody Giro pomeridiano 59.88 Km 693 m 02:27:50 24.3 Km\h focus izalco max lw
11/06/2019 Show to everybody Giro pomeridiano 93.58 Km 950 m 03:21:14 27.9 Km\h focus izalco max lw
09/06/2019 Show to everybody Giro mattutino 124.01 Km 1320 m 04:54:14 25.29 Km\h focus izalco max lw
08/06/2019 Show to everybody Giro mattutino 166.03 Km 2364 m 06:32:03 25.41 Km\h focus izalco max lw
07/06/2019 Show to everybody Giro mattutino 66.89 Km 814 m 02:47:43 23.93 Km\h focus izalco max lw
06/06/2019 Show to everybody Giro mattutino 98.55 Km 924 m 03:39:21 26.96 Km\h focus izalco max lw
05/06/2019 Show to everybody Giro mattutino 102.67 Km 1316 m 03:53:53 26.34 Km\h focus izalco max lw
04/06/2019 Show to everybody Giro mattutino 101.45 Km 836 m 03:33:27 28.52 Km\h focus izalco max lw
04/06/2019 Show to everybody Giro mattutino 101.45 Km 836 m 03:33:27 28.52 Km\h focus izalco max lw
02/06/2019 Show to everybody Giro mattutino 144.05 Km 2560 m 05:26:09 26.5 Km\h focus izalco max lw
02/06/2019 Show to everybody Giro mattutino 3 Km 24 m 00:06:38 27.16 Km\h focus izalco max lw
01/06/2019 Show to everybody Giro mattutino 60.92 Km 323 m 02:23:31 25.47 Km\h focus izalco max lw
31/05/2019 Show to everybody Giro pomeridiano 68.35 Km 746 m 02:25:20 28.22 Km\h focus izalco max lw
30/05/2019 Show to everybody Giro pomeridiano 11.22 Km 60 m 00:25:42 26.2 Km\h focus izalco max lw
30/05/2019 Show to everybody Giro pomeridiano 102.62 Km 829 m 03:34:18 28.73 Km\h focus izalco max lw
25/05/2019 Show to everybody Giro mattutino 150.23 Km 2567 m 06:05:49 24.64 Km\h focus izalco max lw
24/05/2019 Show to everybody Giro mattutino 88.97 Km 920 m 03:00:34 29.56 Km\h focus izalco max lw
23/05/2019 Show to everybody Giro mattutino 105.88 Km 1133 m 03:53:10 27.25 Km\h focus izalco max lw
22/05/2019 Show to everybody Giro mattutino 112.78 Km 1361 m 04:16:34 26.38 Km\h focus izalco max lw
21/05/2019 Show to everybody Giro mattutino 81.92 Km 738 m 02:52:24 28.51 Km\h focus izalco max lw
19/05/2019 Show to everybody Giro mattutino 102.31 Km 1618 m 04:26:37 23.02 Km\h focus izalco max lw
18/05/2019 Show to everybody Giro mattutino 137.47 Km 1826 m 05:20:29 25.74 Km\h focus izalco max lw
16/05/2019 Show to everybody Giro pomeridiano 117.31 Km 1525 m 04:33:48 25.71 Km\h focus izalco max lw
15/05/2019 Show to everybody Giro pomeridiano 78.66 Km 1090 m 02:53:30 27.2 Km\h focus izalco max lw
12/05/2019 Show to everybody Giro mattutino 95.94 Km 1055 m 03:47:28 25.31 Km\h focus izalco max lw
11/05/2019 Show to everybody Giro mattutino 178.04 Km 2605 m 06:32:57 27.19 Km\h focus izalco max lw
10/05/2019 Show to everybody Giro mattutino 94.81 Km 1280 m 03:34:06 26.57 Km\h focus izalco max lw
08/05/2019 Show to everybody Giro mattutino con presidente e vice 111.39 Km 1507 m 04:06:53 27.07 Km\h focus izalco max lw
07/05/2019 Show to everybody Giro mattutino 120.02 Km 1750 m 04:36:14 26.07 Km\h focus izalco max lw
05/05/2019 Show to everybody Giro mattutino 117 Km 1220 m 03:59:55 29.26 Km\h focus izalco max lw
04/05/2019 Show to everybody Giro mattutino nel triangolo delle bermuda 184.32 Km 2424 m 06:57:38 26.48 Km\h focus izalco max lw
02/05/2019 Show to everybody Giro pomeridiano 92.22 Km 983 m 03:22:14 27.36 Km\h focus izalco max lw
01/05/2019 Show to everybody Giro mattutino 166.86 Km 1784 m 05:54:36 28.23 Km\h focus izalco max lw
28/04/2019 Show to everybody Giro mattutino 112.4 Km 1189 m 04:13:15 26.63 Km\h focus izalco max lw
27/04/2019 Show to everybody Giro mattutino 135.5 Km 1931 m 05:23:49 25.11 Km\h focus izalco max lw
26/04/2019 Show to everybody Deposito esche 114.33 Km 1693 m 04:32:17 25.19 Km\h focus izalco max lw
25/04/2019 Show to everybody Giro mattutino 178.12 Km 2492 m 07:02:41 25.28 Km\h focus izalco max lw
24/04/2019 Show to everybody Giro mattutino 92.01 Km 1376 m 03:52:30 23.74 Km\h focus izalco max lw
22/04/2019 Show to everybody Giro mattutino 142.19 Km 1626 m 05:10:36 27.47 Km\h focus izalco max lw
21/04/2019 Show to everybody Giro mattutino 113.67 Km 2069 m 04:19:36 26.27 Km\h focus izalco max lw
20/04/2019 Show to everybody Giro mattutino 144.42 Km 1335 m 05:50:30 24.72 Km\h focus izalco max lw
18/04/2019 Show to everybody Giro pomeridiano 108.95 Km 1020 m 03:37:32 30.05 Km\h focus izalco max lw
17/04/2019 Show to everybody Giro pomeridiano 144.06 Km 1002 m 04:47:59 30.01 Km\h focus izalco max lw
16/04/2019 Show to everybody Giro pomeridiano 106.54 Km 1599 m 04:08:16 25.75 Km\h focus izalco max lw
14/04/2019 Show to everybody Giro mattutino 106 Km 2497 m 04:45:02 22.31 Km\h focus izalco max lw
13/04/2019 Show to everybody Giro dell`ora di pranzo 90.21 Km 1739 m 03:53:34 23.17 Km\h focus izalco max lw
11/04/2019 Show to everybody Giro mattutino 110.28 Km 950 m 03:50:29 28.71 Km\h focus izalco max lw
10/04/2019 Show to everybody Giro mattutino 104.25 Km 2002 m 04:01:04 25.95 Km\h focus izalco max lw
09/04/2019 Show to everybody Giro mattutino 70.81 Km 1118 m 02:57:22 23.95 Km\h focus izalco max lw
08/04/2019 Show to everybody Giro mattutino 78.01 Km 762 m 02:46:28 28.12 Km\h focus izalco max lw
07/04/2019 Show to everybody Giro mattutino 155.92 Km 2096 m 05:52:55 26.51 Km\h focus izalco max lw
06/04/2019 Show to everybody Giro mattutino 181.12 Km 2559 m 07:16:25 24.9 Km\h focus izalco max lw
03/04/2019 Show to everybody Giro pomeridiano 45.5 Km 603 m 01:41:24 26.92 Km\h focus izalco max lw
02/04/2019 Show to everybody Giro pomeridiano 124.65 Km 1542 m 04:40:30 26.66 Km\h focus izalco max lw
31/03/2019 Show to everybody Giro mattutino 111.22 Km 1335 m 03:54:44 28.43 Km\h focus izalco max lw
30/03/2019 Show to everybody Giro mattutino 175.46 Km 2367 m 06:41:58 26.19 Km\h focus izalco max lw
29/03/2019 Show to everybody Giro mattutino 66.33 Km 761 m 02:27:43 26.94 Km\h focus izalco max lw
28/03/2019 Show to everybody Giro mattutino 100.89 Km 1508 m 03:51:23 26.16 Km\h focus izalco max lw
27/03/2019 Show to everybody Giro mattutino 97.76 Km 1463 m 03:52:27 25.23 Km\h focus izalco max lw
25/03/2019 Show to everybody Giro mattutino 71.65 Km 972 m 02:58:07 24.13 Km\h focus izalco max lw
24/03/2019 Show to everybody Giro mattutino 172.45 Km 2695 m 07:18:34 23.59 Km\h focus izalco max lw
23/03/2019 Show to everybody Giro mattutino 155.06 Km 2439 m 06:12:13 24.99 Km\h focus izalco max lw
21/03/2019 Show to everybody Giro pomeridiano 114.93 Km 1858 m 04:31:13 25.43 Km\h focus izalco max lw
20/03/2019 Show to everybody Giro pomeridiano 67.07 Km 688 m 02:37:39 25.53 Km\h focus izalco max lw
16/03/2019 Show to everybody Giro mattutino 122.9 Km 1318 m 04:07:22 29.81 Km\h focus izalco max lw
15/03/2019 Show to everybody Giro mattutino 57.65 Km 1105 m 02:07:51 27.05 Km\h focus izalco max lw
14/03/2019 Show to everybody Giro mattutino 99.44 Km 1630 m 03:47:20 26.25 Km\h focus izalco max lw
13/03/2019 Show to everybody Giro mattutino 87.85 Km 1182 m 03:28:57 25.23 Km\h focus izalco max lw
12/03/2019 Show to everybody Giro mattutino 121.15 Km 921 m 04:12:44 28.76 Km\h focus izalco max lw
11/03/2019 Show to everybody Giro mattutino 97.62 Km 1409 m 03:39:31 26.68 Km\h focus izalco max lw
10/03/2019 Show to everybody Giro mattutino 146.13 Km 1688 m 05:01:21 29.1 Km\h focus izalco max lw
09/03/2019 Show to everybody Giro mattutino 177.34 Km 1656 m 05:55:52 29.9 Km\h focus izalco max lw
07/03/2019 Show to everybody Giro pomeridiano 80.53 Km 917 m 03:00:14 26.81 Km\h focus izalco max lw
06/03/2019 Show to everybody Giro pomeridiano 94.94 Km 1202 m 03:24:06 27.91 Km\h focus izalco max lw
05/03/2019 Show to everybody Giro pomeridiano 103.9 Km 1276 m 03:54:07 26.63 Km\h focus izalco max lw
04/03/2019 Show to everybody Giro pomeridiano 76.38 Km 770 m 02:43:25 28.04 Km\h focus izalco max lw
03/03/2019 Show to everybody Giro mattutino 167.69 Km 1950 m 06:12:00 27.05 Km\h focus izalco max lw
02/03/2019 Show to everybody Giro mattutino 130.66 Km 1527 m 04:48:41 27.16 Km\h focus izalco max lw
01/03/2019 Show to everybody Giro mattutino 76.59 Km 1273 m 03:11:37 23.98 Km\h focus izalco max lw
28/02/2019 Show to everybody Giro mattutino 105.33 Km 1384 m 04:01:17 26.19 Km\h focus izalco max lw
27/02/2019 Show to everybody Giro mattutino 87.01 Km 1443 m 03:43:56 23.31 Km\h focus izalco max lw
26/02/2019 Show to everybody Giro mattutino 119.46 Km 1630 m 04:39:58 25.6 Km\h focus izalco max lw
25/02/2019 Show to everybody Giro mattutino 87.7 Km 1996 m 03:49:27 22.93 Km\h focus izalco max lw
24/02/2019 Show to everybody Giro mattutino 123.31 Km 1473 m 04:33:58 27.01 Km\h focus izalco max lw
23/02/2019 Show to everybody Giro mattutino 107.01 Km 1215 m 04:07:33 25.94 Km\h focus izalco max lw
21/02/2019 Show to everybody Giro pomeridiano 93.06 Km 1096 m 03:20:31 27.84 Km\h focus izalco max lw
20/02/2019 Show to everybody Giro pomeridiano 90.54 Km 1034 m 03:27:02 26.24 Km\h focus izalco max lw
19/02/2019 Show to everybody Giro pomeridiano 95.72 Km 1164 m 03:33:42 26.87 Km\h focus izalco max lw
17/02/2019 Show to everybody Giro mattutino 120.3 Km 1140 m 04:12:05 28.63 Km\h focus izalco max lw
16/02/2019 Show to everybody Giro mattutino 161.73 Km 1881 m 05:42:58 28.29 Km\h focus izalco max lw
14/02/2019 Show to everybody Giro mattutino 92.6 Km 1003 m 03:29:44 26.49 Km\h focus izalco max lw
13/02/2019 Show to everybody Giro mattutino 94.98 Km 1694 m 03:56:57 24.05 Km\h focus izalco max lw
12/02/2019 Show to everybody Giro mattutino 101.29 Km 1180 m 03:47:30 26.71 Km\h focus izalco max lw
11/02/2019 Show to everybody Giro mattutino 75.03 Km 1050 m 02:58:17 25.25 Km\h focus izalco max lw
10/02/2019 Show to everybody Giro mattutino 126.33 Km 1392 m 04:38:17 27.24 Km\h focus izalco max lw
09/02/2019 Show to everybody Giro mattutino 152.23 Km 1228 m 05:04:09 30.03 Km\h focus izalco max lw
07/02/2019 Show to everybody Giro pomeridiano 91.5 Km 848 m 03:04:56 29.69 Km\h focus izalco max lw
06/02/2019 Show to everybody Giro pomeridiano 73.18 Km 1119 m 02:52:27 25.46 Km\h focus izalco max lw
05/02/2019 Show to everybody Giro pomeridiano "rientro da San Giovanni con ruota anteriore bucata" 80.88 Km 1286 m 03:28:55 23.23 Km\h focus izalco max lw
03/02/2019 Show to everybody Giro mattutino 143.53 Km 1732 m 05:35:12 25.69 Km\h focus izalco max lw
02/02/2019 Show to everybody Giro mattutino 104.19 Km 1355 m 04:01:23 25.9 Km\h focus izalco max lw
01/02/2019 Show to everybody Giro mattutino 51.4 Km 747 m 02:06:31 24.38 Km\h focus izalco max lw
31/01/2019 Show to everybody Giro mattutino 81.9 Km 1497 m 03:29:44 23.43 Km\h focus izalco max lw
30/01/2019 Show to everybody Giro mattutino 4.87 Km 25 m 00:15:07 19.35 Km\h focus izalco max lw
30/01/2019 Show to everybody Giro mattutino 89.74 Km 1274 m 03:35:05 25.03 Km\h focus izalco max lw
28/01/2019 Show to everybody Giro mattutino 63.14 Km 1158 m 02:41:39 23.44 Km\h focus izalco max lw
27/01/2019 Show to everybody Villagrande bruciagrassi 135.59 Km 1397 m 04:48:42 28.18 Km\h focus izalco max lw
26/01/2019 Show to everybody Giro mattutino 115.45 Km 1381 m 04:20:09 26.63 Km\h focus izalco max lw
20/01/2019 Show to everybody Giro mattutino 108.54 Km 1214 m 03:51:09 28.17 Km\h focus izalco max lw
19/01/2019 Show to everybody Giro mattutino 103.14 Km 1890 m 04:29:30 22.96 Km\h focus izalco max lw
18/01/2019 Show to everybody Giro mattutino 51.51 Km 871 m 02:18:54 22.25 Km\h focus izalco max lw
17/01/2019 Show to everybody Giro mattutino 22.25 Km 249 m 00:54:31 24.49 Km\h focus izalco max lw
17/01/2019 Show to everybody Giro mattutino 36.32 Km 491 m 01:32:25 23.58 Km\h focus izalco max lw
16/01/2019 Show to everybody Giro mattutino 95.19 Km 1621 m 03:56:05 24.19 Km\h focus izalco max lw
15/01/2019 Show to everybody Giro mattutino 77.2 Km 968 m 03:06:30 24.84 Km\h focus izalco max lw
14/01/2019 Show to everybody Brucia grassi 79.46 Km 2110 m 03:53:07 20.45 Km\h focus izalco max lw
13/01/2019 Show to everybody Giro mattutino 102.09 Km 1384 m 04:13:33 24.16 Km\h focus izalco max lw
12/01/2019 Show to everybody Giro mattutino 123.85 Km 2335 m 04:58:42 24.88 Km\h focus izalco max lw
10/01/2019 Show to everybody Giro pomeridiano 72.61 Km 831 m 02:31:53 28.68 Km\h focus izalco max lw
09/01/2019 Show to everybody Giro pomeridiano 80.13 Km 1141 m 03:04:47 26.02 Km\h focus izalco max lw
08/01/2019 Show to everybody Giro pomeridiano 88.96 Km 1040 m 03:00:46 29.53 Km\h focus izalco max lw
06/01/2019 Show to everybody Giro mattutino 120.97 Km 1376 m 04:27:29 27.13 Km\h focus izalco max lw
05/01/2019 Show to everybody Giro mattutino 115.63 Km 1405 m 04:15:25 27.16 Km\h focus izalco max lw
03/01/2019 Show to everybody Giro mattutino 81.03 Km 1054 m 03:04:57 26.29 Km\h focus izalco max lw
02/01/2019 Show to everybody Giro mattutino 32.69 Km 667 m 01:46:06 18.49 Km\h focus izalco max lw
01/01/2019 Show to everybody Giro mattutino 132.46 Km 1627 m 05:07:13 25.87 Km\h focus izalco max lw
31/12/2018 Show to everybody Giro mattutino 108.87 Km 2347 m 04:55:12 22.13 Km\h focus izalco max lw
30/12/2018 Show to everybody Giro mattutino 148.92 Km 1595 m 05:44:55 25.91 Km\h focus izalco max lw
29/12/2018 Show to everybody Giro mattutino 128.58 Km 969 m 04:22:36 29.38 Km\h focus izalco max lw
28/12/2018 Show to everybody Giro mattutino 64.86 Km 1344 m 03:16:53 19.77 Km\h focus izalco max lw
27/12/2018 Show to everybody Giro mattutino 105.56 Km 1334 m 04:10:02 25.33 Km\h focus izalco max lw
26/12/2018 Show to everybody Giro mattutino 105.08 Km 790 m 03:42:38 28.32 Km\h focus izalco max lw
25/12/2018 Show to everybody Giro mattutino 76.07 Km 1073 m 02:54:46 26.12 Km\h focus izalco max lw
24/12/2018 Show to everybody Giro mattutino 61.84 Km 355 m 02:29:30 24.82 Km\h focus izalco max lw
23/12/2018 Show to everybody Giro mattutino 151.41 Km 1696 m 05:41:48 26.58 Km\h focus izalco max lw
22/12/2018 Show to everybody Giro mattutino 131.38 Km 2076 m 05:23:35 24.36 Km\h focus izalco max lw
21/12/2018 Show to everybody Giro mattutino 86.87 Km 1216 m 03:25:58 25.31 Km\h focus izalco max lw
19/12/2018 Show to everybody Giro mattutino 55.77 Km 878 m 02:14:09 24.94 Km\h focus izalco max lw
18/12/2018 Show to everybody Giro mattutino 87.92 Km 657 m 03:18:48 26.53 Km\h focus izalco max lw
16/12/2018 Show to everybody Giro mattutino 119.35 Km 995 m 04:14:05 28.18 Km\h focus izalco max lw
15/12/2018 Show to everybody Giro mattutino 104.45 Km 1037 m 03:51:23 27.08 Km\h focus izalco max lw
12/12/2018 Show to everybody Giro pomeridiano 71.03 Km 767 m 02:58:07 23.93 Km\h focus izalco max lw
11/12/2018 Show to everybody Giro pomeridiano 86.11 Km 1018 m 03:06:18 27.73 Km\h focus izalco max lw
10/12/2018 Show to everybody Giro pomeridiano 42.74 Km 696 m 01:39:28 25.78 Km\h focus izalco max lw
09/12/2018 Show to everybody Giro mattutino 134.12 Km 1304 m 04:58:15 26.98 Km\h focus izalco max lw
08/12/2018 Show to everybody Giro mattutino 54.13 Km 867 m 02:08:21 25.3 Km\h focus izalco max lw
07/12/2018 Show to everybody Giro mtb 40.86 Km 759 m 01:57:03 20.94 Km\h focus izalco max lw
06/12/2018 Show to everybody Giro mattutino 110.62 Km 1442 m 04:13:26 26.19 Km\h focus izalco max lw
05/12/2018 Show to everybody Giro mattutino 49.79 Km 882 m 02:12:26 22.56 Km\h focus izalco max lw
04/12/2018 Show to everybody Giro mattutino 108.94 Km 952 m 03:55:29 27.76 Km\h focus izalco max lw
03/12/2018 Show to everybody Giro mattutino 48.94 Km 702 m 02:04:44 23.54 Km\h focus izalco max lw
02/12/2018 Show to everybody Giro mattutino file Cat Woman causa garmin scarico 162.61 Km 2929 m 06:51:42 23.7 Km\h focus izalco max lw
01/12/2018 Show to everybody Giro mattutino 97.6 Km 1324 m 03:48:43 25.6 Km\h focus izalco max lw
29/11/2018 Show to everybody Giro pomeridiano 74.64 Km 1119 m 02:58:18 25.12 Km\h focus izalco max lw
28/11/2018 Show to everybody Giro pomeridiano 92.92 Km 900 m 03:04:13 30.26 Km\h focus izalco max lw
26/11/2018 Show to everybody Giro pomeridiano 53.25 Km 862 m 02:07:31 25.06 Km\h focus izalco max lw
24/11/2018 Show to everybody Giro mattutino 144.37 Km 1463 m 05:31:22 26.14 Km\h focus izalco max lw
23/11/2018 Show to everybody Giro mattutino 51.13 Km 802 m 02:07:03 24.15 Km\h focus izalco max lw
22/11/2018 Show to everybody Giro mattutino 106.74 Km 1085 m 03:42:55 28.73 Km\h focus izalco max lw
21/11/2018 Show to everybody Giro mattutino 70.04 Km 938 m 02:44:13 25.59 Km\h focus izalco max lw
19/11/2018 Show to everybody Giro mattutino 69.92 Km 873 m 02:45:45 25.31 Km\h focus izalco max lw
18/11/2018 Show to everybody Gran fondo della forcina𙢼`/<`$% ` 96.61 Km 1384 m 03:41:44 26.14 Km\h focus izalco max lw
17/11/2018 Show to everybody Giro mattutino 120.27 Km 1923 m 04:57:00 24.3 Km\h focus izalco max lw
15/11/2018 Show to everybody Giro pomeridiano 93.52 Km 905 m 03:05:25 30.26 Km\h focus izalco max lw
14/11/2018 Show to everybody Giro pomeridiano 62.58 Km 629 m 02:21:48 26.48 Km\h focus izalco max lw
13/11/2018 Show to everybody Giro pomeridiano 94.19 Km 877 m 02:56:09 32.08 Km\h focus izalco max lw
11/11/2018 Show to everybody Giro mattutino 207.55 Km 2639 m 07:39:05 27.13 Km\h focus izalco max lw
10/11/2018 Show to everybody Giro mattutino 152.46 Km 1635 m 05:32:59 27.47 Km\h focus izalco max lw
09/11/2018 Show to everybody Giro mattutino 43.62 Km 582 m 01:36:23 27.15 Km\h focus izalco max lw
08/11/2018 Show to everybody Giro mattutino 112.58 Km 1316 m 04:15:29 26.44 Km\h focus izalco max lw
07/11/2018 Show to everybody Giro mattutino 58.97 Km 797 m 02:21:16 25.05 Km\h focus izalco max lw
06/11/2018 Show to everybody Giro mattutino finale dietro motore 97.56 Km 875 m 03:21:47 29.01 Km\h focus izalco max lw
04/11/2018 Show to everybody Giro mattutino 180.39 Km 2706 m 07:17:14 24.75 Km\h focus izalco max lw
03/11/2018 Show to everybody Giro mattutino 134.89 Km 1778 m 05:10:37 26.06 Km\h focus izalco max lw
01/11/2018 Show to everybody Giro De Vlaminck 95.08 Km 1297 m 03:50:17 24.77 Km\h focus izalco max lw
31/10/2018 Show to everybody Giro pomeridiano 68.07 Km 1136 m 02:42:03 25.2 Km\h focus izalco max lw
30/10/2018 Show to everybody Giro pomeridiano 88.12 Km 939 m 03:09:45 27.87 Km\h focus izalco max lw
28/10/2018 Show to everybody Giro mattutino 109.25 Km 1469 m 04:28:42 24.39 Km\h focus izalco max lw
27/10/2018 Show to everybody 88.13 Km 839 m 03:36:18 24.45 Km\h focus izalco max lw
26/10/2018 Show to everybody Giro mattutino 53.47 Km 472 m 02:06:26 25.38 Km\h focus izalco max lw
25/10/2018 Show to everybody Giro mattutino 96.77 Km 1355 m 03:44:28 25.87 Km\h focus izalco max lw
24/10/2018 Show to everybody Giro mattutino 48.01 Km 492 m 01:49:36 26.28 Km\h focus izalco max lw
23/10/2018 Show to everybody Giro mattutino 104.12 Km 1627 m 04:09:08 25.08 Km\h focus izalco max lw
20/10/2018 Show to everybody Giro mattutino 117.13 Km 1240 m 04:37:42 25.31 Km\h focus izalco max lw
18/10/2018 Show to everybody Giro pomeridiano 103.37 Km 1263 m 03:37:20 28.54 Km\h focus izalco max lw
14/10/2018 Show to everybody Giro mattutino 227.74 Km 3726 m 08:53:59 25.59 Km\h focus izalco max lw
13/10/2018 Show to everybody Giro mattutino 94.11 Km 1014 m 03:40:12 25.64 Km\h focus izalco max lw
12/10/2018 Show to everybody Giro mattutino 122.54 Km 1907 m 04:27:20 27.5 Km\h focus izalco max lw
10/10/2018 Show to everybody Giro mattutino 112.61 Km 1831 m 04:25:18 25.47 Km\h focus izalco max lw
09/10/2018 Show to everybody Giro mattutino 122.11 Km 1995 m 04:38:36 26.3 Km\h focus izalco max lw
07/10/2018 Show to everybody Giro mattutino 179.74 Km 2929 m 07:01:03 25.61 Km\h focus izalco max lw
06/10/2018 Show to everybody Giro mattutino 102.53 Km 1246 m 03:32:39 28.93 Km\h focus izalco max lw
04/10/2018 Show to everybody Giro pomeridiano 70.32 Km 1060 m 02:48:03 25.11 Km\h focus izalco max lw
03/10/2018 Show to everybody Giro pomeridiano 120.84 Km 1634 m 04:23:28 27.52 Km\h focus izalco max lw
30/09/2018 Show to everybody Giro mattutino 129.85 Km 1859 m 04:47:20 27.11 Km\h focus izalco max lw
29/09/2018 Show to everybody Giro mattutino 130.75 Km 1463 m 04:35:36 28.46 Km\h focus izalco max lw
28/09/2018 Show to everybody Giro mattutino 50.77 Km 586 m 01:47:20 28.38 Km\h focus izalco max lw
27/09/2018 Show to everybody Giro mattutino 112.58 Km 1775 m 04:30:32 24.97 Km\h focus izalco max lw